Coatesville, Pennsylvania
Current Conditions -  °F | °C
As of 7:15 AM on Tuesday 27 Jan 2015 (Local Time) from KMQS Reporting Station
Light Snow Light Snow  
Wind Chill: 18°   Ceiling: 200
Heat Index: 27°   Visibility: 2.5mi
Dew Point: 25°   Wind: 8mph
Humidity: 93%   Direction: 330°NNW
Pressure: 29.73"   Gusts: NA
Location:  39.98°N, 75.82°W
Report Text: KMQS 271215Z AUTO 33007KT 2 1/2SM -SN OVC002 M03/M04 A2973 RMK AO2
Loading
Personal Weather Stations






























Interactive Weather Map New forecast layout! Learn more

10-Day Weather Forecast

Advertisements
Track Severe Weather on mobile